Time;durP1;ratioP1;P1;durP2;ratioP2;P2;SDS_P1;SDS_P2;PMS_P1;PMS_P2;Temp;Humidity;BMP_temperature;BMP_pressure;BME280_temperature;BME280_humidity;BME280_pressure;Samples;Min_cycle;Max_cycle;Signal;HPM_P1;HPM_P2
2021/03/03 00:00:17;;;;;;;33.67;18.73;;;;;;;5.10;81.93;101881.16;5103898;28;20048;-86
2021/03/03 00:02:46;;;;;;;33.95;19.30;;;;;;;5.10;82.13;101881.16;5107999;28;20051;-86
2021/03/03 00:05:17;;;;;;;31.90;18.75;;;;;;;5.09;81.81;101881.16;5101096;28;20044;-85
2021/03/03 00:07:43;;;;;;;32.88;19.98;;;;;;;4.97;80.66;101875.94;5101051;28;20040;-85
2021/03/03 00:10:10;;;;;;;34.05;17.88;;;;;;;4.86;81.38;101884.69;5103150;28;20038;-85
2021/03/03 00:12:39;;;;;;;32.30;19.17;;;;;;;4.85;82.11;101880.31;5105885;28;20058;-87
2021/03/03 00:15:08;;;;;;;34.15;18.33;;;;;;;4.84;81.71;101885.56;5105671;28;20046;-86
2021/03/03 00:17:35;;;;;;;34.60;18.98;;;;;;;4.83;81.78;101882.06;5108872;28;20052;-86
2021/03/03 00:20:04;;;;;;;32.22;18.00;;;;;;;4.81;81.34;101880.31;5108817;28;20059;-86
2021/03/03 00:22:32;;;;;;;31.50;17.67;;;;;;;4.79;81.90;101861.06;5100707;28;20123;-85
2021/03/03 00:25:02;;;;;;;35.03;19.33;;;;;;;4.70;82.61;101861.94;5098567;28;20048;-84
2021/03/03 00:27:30;;;;;;;37.28;19.02;;;;;;;4.70;82.68;101871.56;5085878;28;20075;-83
2021/03/03 00:30:18;;;;;;;31.98;18.45;;;;;;;4.65;82.98;101871.56;5087528;28;20044;-85
2021/03/03 00:32:44;;;;;;;33.75;19.08;;;;;;;4.65;82.92;101874.19;5093948;28;20107;-83
2021/03/03 00:35:12;;;;;;;37.30;19.55;;;;;;;4.64;83.39;101869.81;5096617;28;20048;-85
2021/03/03 00:37:39;;;;;;;31.90;18.88;;;;;;;4.62;82.98;101874.16;5095162;28;20044;-85
2021/03/03 00:40:06;;;;;;;33.67;18.10;;;;;;;4.58;83.54;101878.53;5120251;28;20040;-87
2021/03/03 00:42:33;;;;;;;38.97;19.65;;;;;;;4.58;83.48;101877.66;5104174;28;20067;-86
2021/03/03 00:45:01;;;;;;;36.88;19.52;;;;;;;4.56;83.30;101866.31;5104062;28;20074;-86
2021/03/03 00:47:27;;;;;;;33.97;19.30;;;;;;;4.58;84.13;101875.03;5105578;28;20155;-85
2021/03/03 00:49:55;;;;;;;31.67;18.60;;;;;;;4.64;83.84;101887.28;5104141;28;20056;-85
2021/03/03 00:52:23;;;;;;;31.58;18.85;;;;;;;4.57;83.38;101874.16;5106657;28;20044;-85
2021/03/03 00:54:49;;;;;;;33.97;19.50;;;;;;;4.53;83.68;101869.81;5107097;28;20047;-86
2021/03/03 00:57:16;;;;;;;36.63;20.35;;;;;;;4.49;83.73;101867.16;5108182;28;20044;-85
2021/03/03 00:59:43;;;;;;;36.45;19.40;;;;;;;4.43;83.77;101867.16;5111019;28;20112;-85
2021/03/03 01:02:09;;;;;;;36.88;20.08;;;;;;;4.41;83.67;101876.75;5113826;28;20040;-83
2021/03/03 01:04:37;;;;;;;34.05;18.98;;;;;;;4.38;83.82;101867.16;5107898;28;20048;-86
2021/03/03 01:07:06;;;;;;;37.35;19.83;;;;;;;4.30;83.53;101865.38;5101968;28;20455;-84
2021/03/03 01:09:32;;;;;;;34.15;19.73;;;;;;;4.26;84.91;101859.25;5095675;28;20056;-85
2021/03/03 01:11:58;;;;;;;35.47;20.05;;;;;;;4.29;85.10;101869.75;5095962;28;20045;-85
2021/03/03 01:14:24;;;;;;;35.45;20.73;;;;;;;4.30;84.60;101865.38;5098037;28;20139;-84
2021/03/03 01:16:53;;;;;;;34.00;19.80;;;;;;;4.28;84.56;101862.75;5093364;28;20066;-85
2021/03/03 01:19:21;;;;;;;37.60;20.70;;;;;;;4.23;84.35;101854.00;5106440;28;20075;-85
2021/03/03 01:21:48;;;;;;;33.97;19.92;;;;;;;4.18;84.11;101853.13;5106515;28;20071;-84
2021/03/03 01:24:14;;;;;;;37.78;20.27;;;;;;;4.11;84.31;101853.97;5094861;28;20048;-85
2021/03/03 01:26:41;;;;;;;37.97;20.40;;;;;;;4.07;83.90;101853.09;5091844;28;20056;-84
2021/03/03 01:29:08;;;;;;;36.03;20.30;;;;;;;4.07;84.72;101868.84;5088964;28;20543;-85
2021/03/03 01:31:35;;;;;;;37.97;21.52;;;;;;;4.06;85.08;101869.69;5088933;28;23412;-86
2021/03/03 01:34:09;;;;;;;39.20;21.33;;;;;;;4.07;85.19;101863.59;5093086;28;20566;-85
2021/03/03 01:36:35;;;;;;;36.17;20.42;;;;;;;4.12;85.13;101864.44;5091733;28;20048;-85
2021/03/03 01:39:02;;;;;;;37.65;21.55;;;;;;;4.14;85.29;101864.47;5088748;28;20401;-85
2021/03/03 01:41:30;;;;;;;40.45;21.23;;;;;;;4.15;84.96;101860.97;5091085;28;20059;-85
2021/03/03 01:43:57;;;;;;;39.70;21.88;;;;;;;4.08;84.42;101860.09;5085628;28;20051;-85
2021/03/03 01:46:23;;;;;;;36.65;20.10;;;;;;;4.08;83.67;101873.22;5093730;28;20067;-84
2021/03/03 01:48:50;;;;;;;38.65;21.33;;;;;;;3.98;83.94;101862.66;5106320;28;20423;-84
2021/03/03 01:51:18;;;;;;;38.10;21.33;;;;;;;3.90;84.35;101860.03;5091738;28;20371;-85
2021/03/03 01:53:44;;;;;;;35.63;20.27;;;;;;;3.88;84.30;101862.66;5089171;28;20051;-84
2021/03/03 01:56:12;;;;;;;33.80;20.30;;;;;;;3.90;84.22;101865.28;5088157;28;20040;-84
2021/03/03 01:58:39;;;;;;;40.13;21.25;;;;;;;3.84;84.64;101865.22;5087378;28;20048;-84
2021/03/03 02:01:16;;;;;;;42.30;21.13;;;;;;;3.83;85.14;101843.41;5088919;28;20063;-83
2021/03/03 02:03:43;;;;;;;35.90;20.50;;;;;;;3.81;85.05;101837.28;5093615;28;20037;-84
2021/03/03 02:06:27;;;;;;;37.17;20.40;;;;;;;3.78;85.97;101837.25;5089022;28;20040;-83
2021/03/03 02:09:01;;;;;;;35.17;19.92;;;;;;;3.78;85.16;101850.34;5091769;28;20052;-86
2021/03/03 02:11:58;;;;;;;33.70;19.38;;;;;;;3.76;85.87;101851.25;5103337;28;20046;-85
2021/03/03 02:14:27;;;;;;;35.38;20.20;;;;;;;3.76;85.71;101846.88;5094902;28;20051;-85
2021/03/03 02:16:55;;;;;;;33.83;19.67;;;;;;;3.73;85.86;101843.38;5096167;28;20059;-85
2021/03/03 02:19:28;;;;;;;38.33;20.23;;;;;;;3.70;85.46;101846.84;5100594;28;20052;-85
2021/03/03 02:22:29;;;;;;;33.58;19.52;;;;;;;3.70;86.20;101843.34;5090584;28;21015;-85
2021/03/03 02:25:34;;;;;;;37.67;20.70;;;;;;;3.67;85.92;101836.34;5088371;28;20823;-84
2021/03/03 02:28:04;;;;;;;38.17;20.27;;;;;;;3.65;86.23;101832.84;5017897;28;20155;-85
2021/03/03 02:30:32;;;;;;;37.85;21.38;;;;;;;3.68;86.01;101837.22;5083848;28;20067;-85
2021/03/03 02:33:00;;;;;;;37.70;21.48;;;;;;;3.71;86.17;101829.38;5099698;28;20052;-86
2021/03/03 02:35:28;;;;;;;39.63;22.30;;;;;;;3.75;86.30;101833.78;5121227;28;20075;-85
2021/03/03 02:37:56;;;;;;;39.97;21.08;;;;;;;3.74;86.12;101837.25;5104058;28;20052;-87
2021/03/03 02:40:23;;;;;;;38.15;20.95;;;;;;;3.76;86.59;101831.16;5100542;28;20058;-85
2021/03/03 02:42:51;;;;;;;36.53;20.55;;;;;;;3.78;85.79;101833.75;5094252;28;20453;-84
2021/03/03 02:45:24;;;;;;;36.15;20.15;;;;;;;3.74;85.81;101830.28;5094200;28;20055;-86
2021/03/03 02:47:51;;;;;;;40.28;21.17;;;;;;;3.75;85.90;101829.41;5106286;28;20051;-85
2021/03/03 02:50:18;;;;;;;38.85;21.17;;;;;;;3.76;86.23;101828.53;5109816;28;20052;-85
2021/03/03 02:52:56;;;;;;;33.28;19.48;;;;;;;3.76;85.59;101830.28;5108348;28;20044;-85
2021/03/03 02:55:25;;;;;;;34.58;20.10;;;;;;;3.72;85.64;101829.38;5104608;28;20381;-83
2021/03/03 02:57:57;;;;;;;34.38;19.08;;;;;;;3.74;85.32;101832.03;5093974;28;20516;-82
2021/03/03 03:00:35;;;;;;;33.22;19.50;;;;;;;3.70;85.57;101820.66;5095650;28;20052;-85
2021/03/03 03:03:30;;;;;;;35.03;19.85;;;;;;;3.72;86.01;101823.28;5091417;28;20040;-82
2021/03/03 03:06:17;;;;;;;34.50;19.58;;;;;;;3.68;85.38;101818.88;5097923;28;20048;-82
2021/03/03 03:08:47;;;;;;;35.75;19.98;;;;;;;3.65;85.24;101814.50;5103295;28;20108;-84
2021/03/03 03:11:20;;;;;;;32.63;19.30;;;;;;;3.63;85.59;101817.97;5109520;28;20076;-84
2021/03/03 03:13:49;;;;;;;34.97;19.80;;;;;;;3.60;85.50;101813.63;5105778;28;20040;-85
2021/03/03 03:16:16;;;;;;;34.53;19.67;;;;;;;3.60;85.78;101816.25;5110573;28;20050;-83
2021/03/03 03:18:49;;;;;;;33.22;19.00;;;;;;;3.61;85.21;101814.50;5108740;28;20064;-86
2021/03/03 03:21:16;;;;;;;32.75;18.85;;;;;;;3.59;84.92;101817.13;5109784;28;20036;-86
2021/03/03 03:23:46;;;;;;;35.63;18.15;;;;;;;3.56;85.31;101824.06;5116004;28;20043;-86
2021/03/03 03:26:13;;;;;;;32.10;18.33;;;;;;;3.54;85.12;101824.06;5104928;28;20060;-84
2021/03/03 03:28:42;;;;;;;33.70;18.45;;;;;;;3.52;85.19;101825.81;5089007;28;20074;-83
2021/03/03 03:31:10;;;;;;;31.92;18.85;;;;;;;3.48;85.16;101824.03;5094159;28;20131;-85
2021/03/03 03:33:37;;;;;;;33.45;17.50;;;;;;;3.46;85.17;101825.78;5111485;28;20048;-84
2021/03/03 03:36:04;;;;;;;35.20;18.55;;;;;;;3.48;85.41;101824.03;5111264;28;20048;-85
2021/03/03 03:38:33;;;;;;;32.92;19.10;;;;;;;3.42;85.27;101827.50;5109346;28;20099;-87
2021/03/03 03:41:05;;;;;;;32.75;18.58;;;;;;;3.40;85.41;101810.03;5111855;28;20044;-85
2021/03/03 03:43:33;;;;;;;35.10;18.73;;;;;;;3.36;85.54;101803.91;5111970;28;20050;-87
2021/03/03 03:46:05;;;;;;;37.28;20.38;;;;;;;3.36;85.95;101810.88;5111922;28;20098;-86
2021/03/03 03:48:34;;;;;;;33.17;19.15;;;;;;;3.36;85.74;101816.13;5106898;28;20114;-85
2021/03/03 03:51:06;;;;;;;32.03;19.08;;;;;;;3.36;86.05;101818.75;5113982;28;20039;-86
2021/03/03 03:53:33;;;;;;;39.85;19.88;;;;;;;3.38;86.32;101827.47;5105608;28;20096;-85
2021/03/03 03:56:00;;;;;;;36.70;19.92;;;;;;;3.35;86.22;101819.59;5108896;28;20111;-85
2021/03/03 03:58:28;;;;;;;37.97;20.45;;;;;;;3.39;86.37;101830.09;5102243;28;20100;-86
2021/03/03 04:00:55;;;;;;;37.00;20.60;;;;;;;3.40;86.26;101823.13;5107918;28;20052;-86
2021/03/03 04:03:21;;;;;;;32.75;19.55;;;;;;;3.36;85.74;101821.34;5103225;28;20055;-86
2021/03/03 04:05:48;;;;;;;34.92;20.25;;;;;;;3.38;86.22;101822.25;5104360;28;20046;-85
2021/03/03 04:08:14;;;;;;;36.50;19.92;;;;;;;3.30;85.81;101824.84;5106500;28;20099;-86
2021/03/03 04:10:47;;;;;;;35.80;19.58;;;;;;;3.27;86.00;101831.78;5099728;28;20046;-85
2021/03/03 04:13:13;;;;;;;34.28;19.67;;;;;;;3.25;85.98;101828.28;5096826;28;20043;-86
2021/03/03 04:15:42;;;;;;;34.80;19.20;;;;;;;3.26;85.96;101823.06;5105985;28;20115;-86
2021/03/03 04:18:09;;;;;;;36.00;18.88;;;;;;;3.25;86.16;101820.44;5108118;28;20036;-84
2021/03/03 04:20:36;;;;;;;32.63;19.25;;;;;;;3.23;86.08;101817.81;5109724;28;20048;-85
2021/03/03 04:23:02;;;;;;;35.63;20.40;;;;;;;3.26;86.47;101822.19;5113285;28;20111;-84
2021/03/03 04:25:29;;;;;;;34.63;19.50;;;;;;;3.27;86.00;101816.09;5115625;28;20036;-82
2021/03/03 04:27:57;;;;;;;35.65;19.27;;;;;;;3.28;86.30;101820.44;5118161;28;20108;-85
2021/03/03 04:30:25;;;;;;;33.00;19.60;;;;;;;3.28;86.31;101816.09;5114515;28;20040;-84
2021/03/03 04:33:08;;;;;;;34.72;19.73;;;;;;;3.26;86.02;101816.94;5101860;28;20044;-85
2021/03/03 04:35:35;;;;;;;29.20;18.35;;;;;;;3.23;86.32;101807.34;5095622;28;20074;-86
2021/03/03 04:38:03;;;;;;;36.20;21.15;;;;;;;3.27;86.47;101803.88;5094695;28;20603;-82
2021/03/03 04:40:30;;;;;;;36.65;19.33;;;;;;;3.24;86.51;101802.97;5094899;28;20068;-83
2021/03/03 04:42:57;;;;;;;33.15;19.35;;;;;;;3.24;86.81;101806.47;5087278;28;20073;-86
2021/03/03 04:45:24;;;;;;;34.45;19.13;;;;;;;3.27;87.02;101810.84;5089180;28;20044;-85
2021/03/03 04:47:54;;;;;;;37.17;20.23;;;;;;;3.29;86.85;101809.13;5090261;28;20049;-84
2021/03/03 04:50:20;;;;;;;34.83;19.27;;;;;;;3.29;86.73;101796.03;5091932;28;20052;-84
2021/03/03 04:52:47;;;;;;;35.88;19.63;;;;;;;3.29;86.63;101794.28;5091016;28;20040;-84
2021/03/03 04:55:13;;;;;;;31.15;18.90;;;;;;;3.30;86.89;101803.91;5099868;28;20123;-83
2021/03/03 04:57:40;;;;;;;31.73;19.10;;;;;;;3.35;86.70;101816.97;5093111;28;20040;-84
2021/03/03 05:00:07;;;;;;;33.10;19.02;;;;;;;3.31;87.05;101815.22;5106733;28;20063;-86
2021/03/03 05:02:33;;;;;;;37.15;18.85;;;;;;;3.28;87.47;101816.09;5103281;28;20475;-84
2021/03/03 05:05:00;;;;;;;33.58;18.67;;;;;;;3.31;87.04;101821.31;5088459;28;20048;-86
2021/03/03 05:07:26;;;;;;;34.65;19.58;;;;;;;3.35;87.44;101816.97;5093142;28;20048;-86
2021/03/03 05:09:52;;;;;;;35.70;20.20;;;;;;;3.33;86.96;101816.09;5092037;28;20059;-85
2021/03/03 05:12:23;;;;;;;35.58;18.92;;;;;;;3.38;86.71;101830.09;5099715;28;20048;-87
2021/03/03 05:14:52;;;;;;;36.40;19.85;;;;;;;3.34;86.71;101818.72;5099703;28;20086;-85
2021/03/03 05:17:18;;;;;;;35.20;19.33;;;;;;;3.40;86.82;101833.59;5100928;28;20907;-83
2021/03/03 05:19:45;;;;;;;34.33;18.85;;;;;;;3.36;85.76;101822.22;5100703;28;20048;-88
2021/03/03 05:22:12;;;;;;;33.03;18.23;;;;;;;3.30;86.06;101818.72;5093162;28;20113;-85
2021/03/03 05:24:39;;;;;;;34.55;18.92;;;;;;;3.19;85.54;101808.16;5096694;28;20375;-87
2021/03/03 05:27:07;;;;;;;32.28;18.50;;;;;;;3.18;85.86;101812.53;5094601;28;20051;-83
2021/03/03 05:29:34;;;;;;;33.92;18.67;;;;;;;3.17;86.43;101816.00;5092897;28;20044;-87
2021/03/03 05:32:00;;;;;;;32.85;18.60;;;;;;;3.16;85.86;101806.41;5093887;28;20048;-86
2021/03/03 05:34:28;;;;;;;33.13;18.60;;;;;;;3.08;86.09;101802.88;5098602;28;20044;-83
2021/03/03 05:36:58;;;;;;;34.33;18.55;;;;;;;2.98;86.23;101797.59;5106775;28;20107;-85
2021/03/03 05:39:25;;;;;;;33.55;18.55;;;;;;;3.07;86.42;101816.84;5099086;28;20054;-86
2021/03/03 05:41:53;;;;;;;41.05;19.23;;;;;;;3.10;86.81;101827.31;5098097;28;20066;-87
2021/03/03 05:44:21;;;;;;;34.45;18.73;;;;;;;3.13;86.14;101811.66;5106419;28;20043;-86
2021/03/03 05:46:48;;;;;;;32.40;18.35;;;;;;;3.09;85.63;101811.63;5103794;28;20036;-86
2021/03/03 05:49:24;;;;;;;32.58;18.08;;;;;;;2.95;86.45;101806.28;5104059;28;20057;-85
2021/03/03 05:51:57;;;;;;;31.92;17.75;;;;;;;2.94;87.06;101804.53;5077121;28;20472;-85
2021/03/03 05:54:23;;;;;;;37.45;19.35;;;;;;;2.85;86.62;101788.75;5110572;28;20040;-87
2021/03/03 05:56:50;;;;;;;36.05;18.77;;;;;;;2.84;87.02;101794.84;5095666;28;20048;-86
2021/03/03 05:59:18;;;;;;;37.15;19.08;;;;;;;2.79;87.15;101794.84;5098570;28;20076;-86
2021/03/03 06:01:45;;;;;;;37.78;19.48;;;;;;;2.80;87.42;101790.50;5104751;28;20105;-87
2021/03/03 06:04:21;;;;;;;38.65;20.08;;;;;;;2.85;87.21;101788.75;5101431;28;20024;-87
2021/03/03 06:06:47;;;;;;;36.90;19.23;;;;;;;2.87;87.76;101787.03;5098041;28;20062;-86
2021/03/03 06:09:14;;;;;;;33.03;18.67;;;;;;;2.91;87.54;101788.81;5098927;28;20054;-85
2021/03/03 06:11:41;;;;;;;31.45;18.55;;;;;;;2.93;87.14;101779.25;5095729;28;20058;-86
2021/03/03 06:14:07;;;;;;;32.13;18.42;;;;;;;2.99;86.95;101792.34;5093223;28;20063;-84
2021/03/03 06:16:34;;;;;;;36.72;19.98;;;;;;;3.00;87.37;101796.72;5093429;28;20050;-85
2021/03/03 06:19:01;;;;;;;32.50;18.40;;;;;;;3.03;86.42;101791.50;5097692;28;20048;-86
2021/03/03 06:21:32;;;;;;;38.45;19.52;;;;;;;3.07;86.87;101790.66;5109574;28;20111;-85
2021/03/03 06:24:02;;;;;;;;;;;;;;;3.15;87.00;101801.16;5096560;28;20044;-86
2021/03/03 06:26:31;;;;;;;35.30;19.45;;;;;;;3.15;86.92;101809.88;5094832;28;20332;-87
2021/03/03 06:28:58;;;;;;;35.97;19.17;;;;;;;3.20;86.86;101809.06;5099888;28;20488;-87
2021/03/03 06:31:28;;;;;;;35.70;19.65;;;;;;;3.23;86.81;101801.22;5112314;28;20054;-86
2021/03/03 06:34:16;;;;;;;35.03;19.75;;;;;;;3.30;86.52;101818.72;5110960;28;20048;-84
2021/03/03 06:36:48;;;;;;;33.10;19.00;;;;;;;3.34;86.92;101815.22;5123999;28;20046;-85
2021/03/03 06:39:21;;;;;;;32.47;19.20;;;;;;;3.41;85.47;101823.16;5111127;28;20036;-85
2021/03/03 06:41:50;;;;;;;31.45;18.90;;;;;;;3.48;85.46;101824.03;5112804;28;20075;-86
2021/03/03 06:44:19;;;;;;;34.20;18.27;;;;;;;3.50;85.09;101815.31;5111353;28;20039;-86
2021/03/03 06:47:07;;;;;;;30.83;18.15;;;;;;;3.58;84.95;101819.72;5109040;28;20036;-86
2021/03/03 06:49:34;;;;;;;31.33;17.88;;;;;;;3.63;84.24;101821.47;5106707;28;20067;-86
2021/03/03 06:52:00;;;;;;;35.50;18.65;;;;;;;3.67;84.17;101815.38;5110111;28;20047;-86
2021/03/03 06:54:55;;;;;;;34.50;18.77;;;;;;;3.74;83.78;101827.66;5110705;28;20036;-88
2021/03/03 06:57:30;;;;;;;31.50;17.73;;;;;;;3.81;83.74;101824.16;5100931;28;20032;-86
2021/03/03 06:59:59;;;;;;;30.90;18.67;;;;;;;3.86;83.60;101825.06;5104609;28;20044;-85
2021/03/03 07:02:32;;;;;;;31.27;17.63;;;;;;;3.97;83.50;101835.56;5099652;28;20040;-85
2021/03/03 07:05:12;;;;;;;33.83;19.42;;;;;;;4.13;82.60;101828.63;5100151;28;20040;-85
2021/03/03 07:07:41;;;;;;;32.72;18.75;;;;;;;4.23;82.58;101827.78;5094763;28;20048;-85
2021/03/03 07:10:09;;;;;;;30.95;18.58;;;;;;;4.28;81.99;101822.53;5097951;28;20064;-85
2021/03/03 07:12:48;;;;;;;40.15;19.38;;;;;;;4.39;81.28;101826.06;5098201;28;20058;-83
2021/03/03 07:15:15;;;;;;;38.30;19.40;;;;;;;4.44;81.61;101825.19;5095764;28;20083;-84
2021/03/03 07:17:43;;;;;;;33.63;18.65;;;;;;;4.43;81.42;101826.06;5095684;28;20048;-84
2021/03/03 07:20:14;;;;;;;30.88;18.83;;;;;;;4.54;81.15;101824.34;5096776;28;20044;-85
2021/03/03 07:22:46;;;;;;;33.92;19.27;;;;;;;4.67;80.73;101832.19;5098561;28;20059;-84
2021/03/03 07:25:15;;;;;;;32.75;19.10;;;;;;;4.85;83.48;101830.44;5118525;28;20052;-84
2021/03/03 07:27:45;;;;;;;34.13;19.42;;;;;;;4.97;82.91;101821.69;5100296;28;20063;-84
2021/03/03 07:30:16;;;;;;;38.63;21.13;;;;;;;5.03;80.19;101828.69;5106857;28;20167;-83
2021/03/03 07:32:45;;;;;;;41.30;19.65;;;;;;;5.07;79.57;101827.78;5104603;28;20055;-84
2021/03/03 07:35:29;;;;;;;32.40;19.10;;;;;;;5.12;79.42;101826.03;5101505;28;20051;-87
2021/03/03 07:37:57;;;;;;;32.92;19.40;;;;;;;5.21;78.82;101819.00;5095128;28;20051;-85
2021/03/03 07:40:31;;;;;;;38.13;19.45;;;;;;;5.25;78.46;101820.75;5092783;28;20080;-85
2021/03/03 07:43:00;;;;;;;32.75;19.10;;;;;;;5.33;78.43;101825.13;5093064;28;20051;-85
2021/03/03 07:45:35;;;;;;;38.80;20.50;;;;;;;5.39;78.25;101827.72;5095741;28;20048;-84
2021/03/03 07:48:08;;;;;;;37.25;19.63;;;;;;;5.43;78.17;101821.56;5091021;28;20040;-85
2021/03/03 07:50:35;;;;;;;35.30;19.27;;;;;;;5.50;78.29;101815.44;5102464;28;20028;-85
2021/03/03 07:53:03;;;;;;;33.03;19.17;;;;;;;5.55;77.89;101809.25;5101697;28;20060;-83
2021/03/03 07:55:33;;;;;;;33.13;18.75;;;;;;;5.72;77.59;101822.34;5124634;27;20042;-84
2021/03/03 07:58:05;;;;;;;30.27;17.95;;;;;;;5.80;76.73;101820.56;5112683;28;20112;-83
2021/03/03 08:00:33;;;;;;;30.20;17.92;;;;;;;5.84;75.87;101816.13;5116578;28;20077;-84
2021/03/03 08:03:03;;;;;;;37.45;19.20;;;;;;;5.90;75.63;101817.03;5115465;28;20059;-85
2021/03/03 08:05:49;;;;;;;48.17;26.13;;;;;;;5.80;75.14;101810.06;5103157;28;20055;-83
2021/03/03 08:08:33;;;;;;;36.05;20.15;;;;;;;5.81;75.92;101814.44;5092376;28;20116;-81
2021/03/03 08:11:01;;;;;;;33.75;18.90;;;;;;;5.92;76.07;101812.66;5098152;28;20048;-84
2021/03/03 08:13:38;;;;;;;31.55;20.15;;;;;;;6.13;75.62;101816.03;5108725;28;20040;-84
2021/03/03 08:16:07;;;;;;;33.88;18.73;;;;;;;6.37;74.45;101818.50;5110685;28;20074;-88
2021/03/03 08:18:37;;;;;;;28.65;18.60;;;;;;;6.59;73.75;101830.63;5107736;28;20045;-83
2021/03/03 08:21:09;;;;;;;29.42;18.15;;;;;;;6.71;72.95;101824.38;5109438;28;20048;-83
2021/03/03 08:23:42;;;;;;;32.42;18.65;;;;;;;6.80;72.38;101826.91;5114211;28;20125;-83
2021/03/03 08:26:32;;;;;;;31.00;18.73;;;;;;;6.84;71.93;101827.78;5106748;28;20120;-83
2021/03/03 08:29:17;;;;;;;35.60;18.70;;;;;;;6.85;71.68;101827.75;5102530;28;20489;-83
2021/03/03 08:31:44;;;;;;;31.60;18.60;;;;;;;6.91;72.06;101818.94;5092441;28;20051;-83
2021/03/03 08:34:12;;;;;;;33.58;19.13;;;;;;;6.91;71.49;101819.81;5097814;28;20052;-83
2021/03/03 08:36:44;;;;;;;31.35;19.33;;;;;;;6.95;71.68;101828.53;5098354;28;20048;-83
2021/03/03 08:39:11;;;;;;;33.03;19.27;;;;;;;6.95;71.50;101820.63;5098330;28;20493;-83
2021/03/03 08:41:39;;;;;;;36.70;20.48;;;;;;;7.01;71.59;101818.84;5098962;28;20082;-84
2021/03/03 08:44:16;;;;;;;33.28;19.90;;;;;;;7.10;72.32;101822.25;5120484;27;20036;-83
2021/03/03 08:46:51;;;;;;;35.45;20.42;;;;;;;7.15;71.92;101831.88;5093408;28;20040;-84
2021/03/03 08:49:21;;;;;;;36.70;20.65;;;;;;;7.27;71.58;101826.47;5104717;28;20044;-84
2021/03/03 08:51:49;;;;;;;32.85;19.67;;;;;;;7.36;70.80;101829.00;5105416;28;21820;-85
2021/03/03 08:54:37;;;;;;;35.25;19.98;;;;;;;7.36;70.16;101825.50;5098541;28;20055;-85
2021/03/03 08:57:26;;;;;;;38.17;19.92;;;;;;;7.19;70.07;101823.06;5097056;28;20050;-84
2021/03/03 08:59:59;;;;;;;40.28;19.52;;;;;;;7.25;70.82;101822.09;5096857;28;20668;-85
2021/03/03 09:02:36;;;;;;;32.87;19.57;;;;;;;7.40;70.39;101817.53;5095680;28;20085;-85
2021/03/03 09:05:16;;;;;;;36.78;21.00;;;;;;;7.49;69.40;101816.56;5098814;28;21005;-85
2021/03/03 09:07:47;;;;;;;42.00;21.33;;;;;;;7.56;69.02;101812.06;5094955;28;20556;-83
2021/03/03 09:10:19;;;;;;;38.40;20.73;;;;;;;7.65;69.00;101818.13;5094270;28;20060;-83
2021/03/03 09:12:50;;;;;;;33.50;20.08;;;;;;;7.79;68.26;101820.59;5095663;28;20068;-87
2021/03/03 09:15:19;;;;;;;38.42;21.42;;;;;;;7.93;68.55;101808.09;5094293;28;20058;-83
2021/03/03 09:17:48;;;;;;;38.33;21.63;;;;;;;8.06;67.78;101803.50;5087006;28;20048;-85
2021/03/03 09:20:21;;;;;;;36.15;21.02;;;;;;;8.02;67.19;101796.56;5086875;28;20052;-85
2021/03/03 09:22:52;;;;;;;32.33;20.17;;;;;;;8.01;67.55;101792.16;5107301;28;20063;-83
2021/03/03 09:25:21;;;;;;;38.40;21.38;;;;;;;8.00;67.28;101793.94;5094126;28;20147;-84
2021/03/03 09:27:54;;;;;;;36.65;20.83;;;;;;;8.10;67.58;101798.19;5101896;28;20088;-84
2021/03/03 09:30:38;;;;;;;33.58;21.23;;;;;;;8.24;67.37;101800.59;5103695;28;20122;-84
2021/03/03 09:33:07;;;;;;;36.80;21.15;;;;;;;8.36;67.58;101794.28;5102789;28;20052;-82
2021/03/03 09:35:34;;;;;;;36.85;21.65;;;;;;;8.36;66.42;101800.44;5102389;28;20044;-84
2021/03/03 09:38:01;;;;;;;34.78;20.40;;;;;;;8.37;67.16;101798.69;5106253;28;20032;-85
2021/03/03 09:40:32;;;;;;;35.13;20.58;;;;;;;8.44;67.03;101797.69;5110224;28;20075;-86
2021/03/03 09:43:00;;;;;;;32.65;19.95;;;;;;;8.56;66.56;101791.34;5101459;28;20145;-86
2021/03/03 09:45:27;;;;;;;36.03;21.13;;;;;;;8.56;66.00;101781.66;5111579;28;20119;-87
2021/03/03 09:47:56;;;;;;;36.72;21.27;;;;;;;8.54;65.86;101795.78;5111743;28;20044;-86
2021/03/03 09:50:33;;;;;;;35.90;20.58;;;;;;;8.51;66.04;101780.84;5109825;28;20028;-84
2021/03/03 09:53:01;;;;;;;36.25;21.67;;;;;;;8.57;66.67;101790.44;5112231;28;20028;-86
2021/03/03 09:55:37;;;;;;;37.75;21.92;;;;;;;8.48;66.16;101769.50;5109229;28;20048;-83
2021/03/03 09:58:04;;;;;;;36.53;21.88;;;;;;;8.54;66.30;101779.94;5112155;28;20044;-83
2021/03/03 10:00:40;;;;;;;37.35;22.63;;;;;;;8.65;66.09;101778.00;5098537;28;20045;-85
2021/03/03 10:03:16;;;;;;;35.17;21.08;;;;;;;8.76;65.90;101784.84;5112789;28;20058;-84
2021/03/03 10:05:52;;;;;;;36.30;22.70;;;;;;;8.99;65.66;101786.19;5115764;28;20036;-84
2021/03/03 10:08:38;;;;;;;37.10;20.42;;;;;;;9.13;65.00;101786.78;5109936;28;20036;-86
2021/03/03 10:11:10;;;;;;;37.88;22.27;;;;;;;9.25;64.24;101769.84;5105697;28;20051;-85
2021/03/03 10:13:44;;;;;;;36.90;22.63;;;;;;;9.41;63.99;101766.88;5106312;28;20074;-86
2021/03/03 10:17:00;;;;;;;37.83;22.73;;;;;;;9.61;63.28;101778.78;5085026;28;20616;-84
2021/03/03 10:19:41;;;;;;;37.67;22.25;;;;;;;9.54;63.55;101766.63;5069612;28;20466;-83
2021/03/03 10:22:09;;;;;;;40.03;24.13;;;;;;;9.47;64.10;101764.09;5057172;28;20076;-84
2021/03/03 10:24:36;;;;;;;43.47;24.35;;;;;;;9.47;64.10;101766.72;5056341;28;20044;-85
2021/03/03 10:27:02;;;;;;;39.40;23.75;;;;;;;9.49;64.29;101767.56;5098217;28;20057;-83
2021/03/03 10:29:35;;;;;;;48.63;24.00;;;;;;;9.52;64.01;101768.41;5063369;28;20108;-83
2021/03/03 10:32:10;;;;;;;42.20;23.80;;;;;;;9.67;64.32;101765.44;5052731;28;20041;-84
2021/03/03 10:34:39;;;;;;;39.80;24.23;;;;;;;9.84;62.70;101758.88;5045805;28;20109;-85
2021/03/03 10:37:05;;;;;;;46.00;25.27;;;;;;;9.92;62.62;101766.63;5046752;28;20144;-83
2021/03/03 10:39:33;;;;;;;42.33;24.17;;;;;;;9.99;62.89;101768.25;5045497;28;20076;-83
2021/03/03 10:42:06;;;;;;;41.22;23.92;;;;;;;10.05;62.46;101762.84;5050925;28;20041;-83
2021/03/03 10:44:52;;;;;;;47.90;26.02;;;;;;;10.06;61.13;101754.00;5051065;28;20045;-84
2021/03/03 10:47:50;;;;;;;38.65;24.13;;;;;;;10.18;61.42;101764.31;5055238;28;20079;-85
2021/03/03 10:50:31;;;;;;;42.47;24.77;;;;;;;10.13;61.20;101762.63;5048976;28;20617;-84
2021/03/03 10:53:04;;;;;;;39.15;22.65;;;;;;;10.18;61.79;101761.66;5054025;28;20059;-83
2021/03/03 10:55:36;;;;;;;;;;;;;;;10.43;60.91;101763.72;5059022;28;20131;-86
2021/03/03 10:58:13;;;;;;;48.63;27.15;;;;;;;10.58;60.70;101754.50;5057486;28;19936;-84
2021/03/03 11:00:57;;;;;;;46.28;27.75;;;;;;;10.57;60.04;101758.94;5055672;28;20125;-83
2021/03/03 11:03:27;;;;;;;41.17;25.10;;;;;;;10.61;59.61;101746.50;5049742;28;20052;-86
2021/03/03 11:05:55;;;;;;;47.20;25.95;;;;;;;10.61;59.51;101759.75;5046740;28;20511;-85
2021/03/03 11:08:22;;;;;;;41.35;26.48;;;;;;;10.58;59.66;101755.38;5047216;28;20056;-86
2021/03/03 11:10:52;;;;;;;44.92;26.38;;;;;;;10.62;59.64;101754.41;5047781;28;20508;-86
2021/03/03 11:13:21;;;;;;;44.42;25.48;;;;;;;10.70;58.92;101748.94;5055317;28;20060;-85
2021/03/03 11:15:49;;;;;;;41.97;26.20;;;;;;;10.81;59.05;101749.50;5060490;28;20295;-87
2021/03/03 11:18:18;;;;;;;;;;;;;;;10.94;58.86;101756.22;5056793;28;20056;-86
2021/03/03 11:20:45;;;;;;;44.67;26.98;;;;;;;10.98;58.46;101738.47;5057351;28;19925;-85
2021/03/03 11:23:15;;;;;;;41.38;24.65;;;;;;;11.16;59.07;101743.25;5056879;28;20060;-87
2021/03/03 11:25:41;;;;;;;44.20;26.70;;;;;;;11.29;57.61;101731.38;5055765;28;20045;-87
2021/03/03 11:28:08;;;;;;;42.97;26.67;;;;;;;11.39;58.06;101718.72;5044098;28;20061;-85
2021/03/03 11:30:35;;;;;;;45.35;27.30;;;;;;;11.31;57.39;101726.91;5047534;28;20060;-84
2021/03/03 11:33:02;;;;;;;46.10;28.13;;;;;;;11.25;57.33;101719.13;5043860;28;20042;-86